Map

Track Data

SID SEASON NUMBER BASIN SUBBASIN NAME ISO_TIME NATURE LAT LON WMO_WIND WMO_PRES WMO_AGENCY TRACK_TYPE DIST2LAND LANDFALL IFLAG USA_AGENCY USA_ATCF_ID USA_LAT USA_LON USA_RECORD USA_STATUS USA_WIND USA_PRES USA_SSHS USA_R34_NE USA_R34_SE USA_R34_SW USA_R34_NW USA_R50_NE USA_R50_SE USA_R50_SW USA_R50_NW USA_R64_NE USA_R64_SE USA_R64_SW USA_R64_NW USA_POCI USA_ROCI USA_RMW USA_EYE TOKYO_LAT TOKYO_LON TOKYO_GRADE TOKYO_WIND TOKYO_PRES TOKYO_R50_DIR TOKYO_R50_LONG TOKYO_R50_SHORT TOKYO_R30_DIR TOKYO_R30_LONG TOKYO_R30_SHORT TOKYO_LAND CMA_LAT CMA_LON CMA_CAT CMA_WIND CMA_PRES HKO_LAT HKO_LON HKO_CAT HKO_WIND HKO_PRES NEWDELHI_LAT NEWDELHI_LON NEWDELHI_GRADE NEWDELHI_WIND NEWDELHI_PRES NEWDELHI_CI NEWDELHI_DP NEWDELHI_POCI REUNION_LAT REUNION_LON REUNION_TYPE REUNION_WIND REUNION_PRES REUNION_TNUM REUNION_CI REUNION_RMW REUNION_R34_NE REUNION_R34_SE REUNION_R34_SW REUNION_R34_NW REUNION_R50_NE REUNION_R50_SE REUNION_R50_SW REUNION_R50_NW REUNION_R64_NE REUNION_R64_SE REUNION_R64_SW REUNION_R64_NW BOM_LAT BOM_LON BOM_TYPE BOM_WIND BOM_PRES BOM_TNUM BOM_CI BOM_RMW BOM_R34_NE BOM_R34_SE BOM_R34_SW BOM_R34_NW BOM_R50_NE BOM_R50_SE BOM_R50_SW BOM_R50_NW BOM_R64_NE BOM_R64_SE BOM_R64_SW BOM_R64_NW BOM_ROCI BOM_POCI BOM_EYE BOM_POS_METHOD BOM_PRES_METHOD NADI_LAT NADI_LON NADI_CAT NADI_WIND NADI_PRES WELLINGTON_LAT WELLINGTON_LON WELLINGTON_WIND WELLINGTON_PRES DS824_LAT DS824_LON DS824_STAGE DS824_WIND DS824_PRES TD9636_LAT TD9636_LON TD9636_STAGE TD9636_WIND TD9636_PRES TD9635_LAT TD9635_LON TD9635_WIND TD9635_PRES TD9635_ROCI NEUMANN_LAT NEUMANN_LON NEUMANN_CLASS NEUMANN_WIND NEUMANN_PRES MLC_LAT MLC_LON MLC_CLASS MLC_WIND MLC_PRES USA_GUST BOM_GUST BOM_GUST_PER REUNION_GUST REUNION_GUST_PER USA_SEAHGT USA_SEARAD_NE USA_SEARAD_SE USA_SEARAD_SW USA_SEARAD_NW STORM_SPEED STORM_DIR
1986356S07183 1987 120 SP MM RAJA 1986-12-21 12:00:00 NR -7.00000 183.000 30 997 wellington main 861 839 ________O_____ -1 -7.00000 -177.000 30 997 14 224
1986356S07183 1987 120 SP MM RAJA 1986-12-21 15:00:00 NR -7.51512 182.500 main 846 833 ________P_____ -1 -7.51512 -177.500 30 997 14 225
1986356S07183 1987 120 SP MM RAJA 1986-12-21 18:00:00 NR -8.00000 182.000 30 997 wellington main 838 836 ________O_____ -1 -8.00000 -178.000 30 997 14 227
1986356S07183 1987 120 SP MM RAJA 1986-12-21 21:00:00 NR -8.42993 181.500 main 844 844 ________P_____ -1 -8.42993 -178.500 30 997 12 236
1986356S07183 1987 120 SP MM RAJA 1986-12-22 00:00:00 TS -8.67143 181.000 30 997 wellington main 848 810 O_______O_O_O_ jtwc_sh SH041987 -8.50000 -179.000 25 -1 -8.80000 -179.000 30 997 -8.50000 -179.000 1 25 -8.50000 -179.000 TC 25 10 236
1986356S07183 1987 120 SP MM RAJA 1986-12-22 03:00:00 TS -8.99117 180.645 main 809 774 P_______P_P_P_ SH041987 -8.90257 -179.267 25 -1 -9.13001 -179.523 30 997 -8.89069 -179.197 1 26 -8.90257 -179.267 TC 25 9 224
1986356S07183 1987 120 SP MM RAJA 1986-12-22 06:00:00 TS -9.32732 180.368 30 997 wellington main 774 739 O_______O_P_O_ jtwc_sh SH041987 -9.30000 -179.500 25 -1 -9.40000 180.000 30 997 -9.28507 -179.405 1 27 -9.30000 -179.500 TC 25 8 216
1986356S07183 1987 120 SP MM RAJA 1986-12-22 09:00:00 TS -9.66792 180.155 main 728 694 P_______P_P_P_ SH041987 -9.69243 -179.685 27 -1 -9.59989 179.627 30 997 -9.68692 -179.636 1 28 -9.69243 -179.685 TC 27 8 213
1986356S07183 1987 120 SP MM RAJA 1986-12-22 12:00:00 TS -10.0250 179.900 30 997 wellington main 694 649 O_______O_O_O_ jtwc_sh SH041987 -10.1000 -179.900 30 -1 -9.80000 179.300 30 997 -10.1000 -179.900 1 30 -10.1000 -179.900 TC 30 10 217
1986356S07183 1987 120 SP MM RAJA 1986-12-22 15:00:00 TS -10.4344 179.572 main 649 607 P_______P_P_P_ SH041987 -10.5650 179.773 30 -1 -10.0850 178.950 30 997 -10.5228 179.794 1 30 -10.5650 179.773 TC 30 11 220
1986356S07183 1987 120 SP MM RAJA 1986-12-22 18:00:00 TS -10.8331 179.213 30 997 wellington main 608 568 O_______O_P_O_ jtwc_sh SH041987 -11.0000 179.400 30 -1 -10.4000 178.600 30 997 -10.9324 179.453 1 30 -11.0000 179.400 TC 30 10 224
1986356S07183 1987 120 SP MM RAJA 1986-12-22 21:00:00 TS -11.1727 178.857 main 568 552 P_______P_P_P_ SH041987 -11.3374 179.057 30 -1 -10.7150 178.228 30 997 -11.3009 179.085 1 30 -11.3374 179.057 TC 30 9 229
1986356S07183 1987 120 SP MM RAJA 1986-12-23 00:00:00 TS -11.4500 178.500 30 997 wellington main 555 532 O_______O_O_O_ jtwc_sh SH041987 -11.6000 178.700 30 -1 -11.0000 177.900 30 997 -11.6000 178.700 1 30 -11.6000 178.700 TC 30 9 234
1986356S07183 1987 120 SP MM RAJA 1986-12-23 03:00:00 TS -11.6766 178.147 main 536 529 P_______P_P_P_ SH041987 -11.8375 178.307 30 -1 -11.2224 177.677 32 996 -11.8091 178.294 1 30 -11.8375 178.307 TC 30 8 241
1986356S07183 1987 120 SP MM RAJA 1986-12-23 06:00:00 TS -11.8369 177.794 35 995 wellington main 536 525 O_______O_P_O_ jtwc_sh SH041987 -12.0000 177.900 30 -1 -11.4000 177.500 35 995 -11.9476 177.877 1 30 -12.0000 177.900 TC 30 7 249
1986356S07183 1987 120 SP MM RAJA 1986-12-23 09:00:00 TS -11.9387 177.443 main 542 532 P_______P_P_P_ SH041987 -12.0799 177.500 30 -1 -11.5575 177.300 35 995 -12.0373 177.472 1 30 -12.0799 177.500 TC 30 7 257
1986356S07183 1987 120 SP MM RAJA 1986-12-23 12:00:00 TS -12.0000 177.100 35 995 wellington main 543 543 O_______O_O_O_ jtwc_sh SH041987 -12.1000 177.100 30 -1 -11.7000 177.100 35 995 -12.1000 177.100 1 30 -12.1000 177.100 TC 30 7 261
1986356S07183 1987 120 SP MM RAJA 1986-12-23 15:00:00 TS -12.0427 176.731 main 560 550 P_______P_P_P_ SH041987 -12.0926 176.662 32 -1 -11.8425 176.885 37 992 -12.1431 176.716 1 31 -12.0926 176.662 TC 32 7 262
1986356S07183 1987 120 SP MM RAJA 1986-12-23 18:00:00 TS -12.0925 176.419 40 990 wellington main 562 561 O_______O_P_O_ jtwc_sh SH041987 -12.1000 176.300 35 0 -12.0000 176.700 40 990 -12.1699 176.378 1 32 -12.1000 176.300 TC 35 5 255
1986356S07183 1987 120 SP MM RAJA 1986-12-23 21:00:00 TS -12.1804 176.208 main 561 556 P_______P_P_P_ SH041987 -12.1699 176.083 35 0 -12.1700 176.540 40 990 -12.2118 176.125 1 33 -12.1699 176.083 TC 35 4 231
1986356S07183 1987 120 SP MM RAJA 1986-12-24 00:00:00 TS -12.3250 176.125 40 990 wellington main 556 536 O_______O_O_O_ jtwc_sh SH041987 -12.3000 176.000 35 0 -12.4000 176.500 40 990 -12.3000 176.000 2 35 -12.3000 176.000 TC 35 4 188
1986356S07183 1987 120 SP MM RAJA 1986-12-24 03:00:00 TS -12.5458 176.152 main 531 496 P_______P_P_P_ SH041987 -12.4774 175.983 35 0 -12.7500 176.640 42 988 -12.4784 176.005 2 36 -12.4774 175.983 TC 35 5 159
1986356S07183 1987 120 SP MM RAJA 1986-12-24 06:00:00 TS -12.8011 176.310 45 987 wellington main 496 466 O_______O_P_O_ jtwc_sh SH041987 -12.7000 176.100 35 0 -13.1000 176.900 45 987 -12.7045 176.140 2 37 -12.7000 176.100 TC 35 6 141
1986356S07183 1987 120 SP MM RAJA 1986-12-24 09:00:00 TS -13.0458 176.561 main 461 417 P_______P_P_P_ SH041987 -12.9500 176.340 37 0 -13.3300 177.185 47 986 -12.9534 176.380 2 38 -12.9500 176.340 TC 37 7 130
1986356S07183 1987 120 SP MM RAJA 1986-12-24 12:00:00 TS -13.2750 176.900 50 985 wellington main 417 380 O_______O_O_O_ jtwc_sh SH041987 -13.2000 176.700 40 0 -13.5000 177.500 50 985 -13.2000 176.700 2 40 -13.2000 176.700 TC 40 8 121
1986356S07183 1987 120 SP MM RAJA 1986-12-24 15:00:00 TS -13.4692 177.279 main 380 353 P_______P_P_P_ SH041987 -13.4076 177.135 42 0 -13.6499 177.778 50 985 -13.4117 177.069 2 43 -13.4076 177.135 TC 42 9 116
1986356S07183 1987 120 SP MM RAJA 1986-12-24 18:00:00 TS -13.6539 177.701 50 985 wellington main 343 317 O_______O_P_O_ jtwc_sh SH041987 -13.6000 177.600 45 0 -13.8000 178.100 50 985 -13.6156 177.505 2 47 -13.6000 177.600 TC 45 9 115
1986356S07183 1987 120 SP MM RAJA 1986-12-24 21:00:00 TS -13.8567 178.138 main 306 278 P_______P_P_P_ SH041987 -13.8000 178.023 50 0 -14.0151 178.542 52 982 -13.8117 177.963 2 51 -13.8000 178.023 TC 50 9 116
1986356S07183 1987 120 SP MM RAJA 1986-12-25 00:00:00 TS -14.0500 178.550 55 980 wellington main 274 243 O_______O_O_O_ jtwc_sh SH041987 -14.0000 178.400 55 0 -14.2000 179.000 55 980 -14.0000 178.400 2 55 -14.0000 178.400 TC 55 8 117
1986356S07183 1987 120 SP MM RAJA 1986-12-25 03:00:00 TS -14.2241 178.879 main 243 211 P_______P_P_P_ SH041987 -14.2074 178.708 55 0 -14.2799 179.373 55 980 -14.2019 178.730 2 55 -14.2074 178.708 TC 55 7 118
1986356S07183 1987 120 SP MM RAJA 1986-12-25 06:00:00 TS -14.3735 179.184 55 980 wellington main 211 192 O_______O_P_O_ jtwc_sh SH041987 -14.4000 179.000 55 0 -14.3000 179.700 55 980 -14.3941 179.035 2 55 -14.4000 179.000 TC 55 7 115
1986356S07183 1987 120 SP MM RAJA 1986-12-25 09:00:00 TS -14.5023 179.501 main 192 179 P_______P_P_P_ SH041987 -14.5649 179.328 55 0 -14.3149 180.000 55 980 -14.5643 179.348 2 55 -14.5649 179.328 TC 55 7 109
1986356S07183 1987 120 SP MM RAJA 1986-12-25 12:00:00 TS -14.6000 179.850 55 980 wellington main 179 169 O_______O_O_O_ jtwc_sh SH041987 -14.7000 179.700 55 0 -14.3000 -179.700 55 980 -14.7000 179.700 2 55 -14.7000 179.700 TC 55 8 103
1986356S07183 1987 120 SP MM RAJA 1986-12-25 15:00:00 TS -14.6705 180.272 main 173 173 P_______P_P_P_ SH041987 -14.8224 -179.873 55 0 -14.2426 -179.335 57 977 -14.7946 -179.831 2 55 -14.8224 -179.873 TC 55 8 98
1986356S07183 1987 120 SP MM RAJA 1986-12-25 18:00:00 TS -14.7133 180.718 60 975 wellington main 188 188 O_______O_P_O_ jtwc_sh SH041987 -14.9000 -179.400 55 0 -14.2000 -179.000 60 975 -14.8533 -179.327 2 55 -14.9000 -179.400 TC 55 9 94
1986356S07183 1987 120 SP MM RAJA 1986-12-25 21:00:00 TS -14.7376 181.162 main 218 218 P_______P_P_P_ SH041987 -14.9151 -178.877 55 0 -14.2349 -178.763 62 972 -14.8852 -178.835 2 55 -14.9151 -178.877 TC 55 8 93
1986356S07183 1987 120 SP MM RAJA 1986-12-26 00:00:00 TS -14.7500 181.550 65 970 wellington main 240 232 O_______O_O_O_ jtwc_sh SH041987 -14.9000 -178.400 55 0 -14.3000 -178.600 65 970 -14.9000 -178.400 2 55 -14.9000 -178.400 TC 55 7 92
1986356S07183 1987 120 SP MM RAJA 1986-12-26 03:00:00 TS -14.7659 181.840 main 256 256 P_______P_P_P_ SH041987 -14.8999 -178.055 55 0 -14.3500 -178.492 67 967 -14.9140 -178.036 2 55 -14.8999 -178.055 TC 55 5 93
1986356S07183 1987 120 SP MM RAJA 1986-12-26 06:00:00 TS -14.7787 182.064 70 965 wellington main 283 283 O_______O_P_O_ jtwc_sh SH041987 -14.9000 -177.800 55 0 -14.4000 -178.400 70 965 -14.9146 -177.742 2 55 -14.9000 -177.800 TC 55 4 93
1986356S07183 1987 120 SP MM RAJA 1986-12-26 09:00:00 TS -14.7895 182.284 main 301 301 P_______P_P_P_ SH041987 -14.9000 -177.555 55 0 -14.4500 -178.228 70 965 -14.9079 -177.527 2 55 -14.9000 -177.555 TC 55 3 94
1986356S07183 1987 120 SP MM RAJA 1986-12-26 12:00:00 TS -14.8000 182.425 70 965 wellington main 310 310 O_______O_O_O_ jtwc_sh SH041987 -14.9000 -177.400 55 0 -14.5000 -178.100 70 965 -14.9000 -177.400 2 55 -14.9000 -177.400 TC 55 2 99
1986356S07183 1987 120 SP MM RAJA 1986-12-26 15:00:00 TS -14.8162 182.450 main 319 310 P_______P_P_P_ SH041987 -14.9000 -177.355 55 0 -14.5650 -178.120 70 965 -14.8999 -177.368 2 56 -14.9000 -177.355 TC 55 0 231
1986356S07183 1987 120 SP MM RAJA 1986-12-26 18:00:00 TS -14.8250 182.395 70 965 wellington main 310 301 O_______O_P_O_ jtwc_sh SH041987 -14.9000 -177.400 55 0 -14.6000 -178.200 70 965 -14.8999 -177.418 2 57 -14.9000 -177.400 TC 55 1 270
1986356S07183 1987 120 SP MM RAJA 1986-12-26 21:00:00 TS -14.8162 182.312 main 301 292 P_______P_P_P_ SH041987 -14.9000 -177.493 57 0 -14.5650 -178.258 72 962 -14.8999 -177.509 2 58 -14.9000 -177.493 TC 57 2 279
1986356S07183 1987 120 SP MM RAJA 1986-12-27 00:00:00 TS -14.8000 182.225 75 960 wellington main 292 292 O_______O_O_O_ jtwc_sh SH041987 -14.9000 -177.600 60 0 -14.5000 -178.300 75 960 -14.9000 -177.600 2 60 -14.9000 -177.600 TC 60 1 287
1986356S07183 1987 120 SP MM RAJA 1986-12-27 03:00:00 TS -14.7817 182.193 main 292 292 P_______P_P_P_ SH041987 -14.8925 -177.643 62 0 -14.4500 -178.308 75 960 -14.8918 -177.634 2 62 -14.8925 -177.643 TC 62 1 291
1986356S07183 1987 120 SP MM RAJA 1986-12-27 06:00:00 TS -14.7750 182.150 75 960 wellington main 283 283 O_______O_O_O_ jtwc_sh SH041987 -14.9000 -177.700 65 1 -14.4000 -178.300 75 960 -14.9000 -177.700 3 65 -14.9000 -177.700 TC 65 1 263
1986356S07183 1987 120 SP MM RAJA 1986-12-27 09:00:00 TS -14.7973 182.058 main 283 265 P_______P_P_P_ SH041987 -14.9500 -177.827 65 1 -14.3425 -178.285 75 960 -14.9467 -177.829 3 65 -14.9500 -177.827 TC 65 2 257
1986356S07183 1987 120 SP MM RAJA 1986-12-27 12:00:00 TS -14.8250 181.925 75 960 wellington main 265 256 O_______O_O_O_ jtwc_sh SH041987 -15.0000 -178.000 65 1 -14.3000 -178.300 75 960 -15.0000 -178.000 4 65 -15.0000 -178.000 TC 65 3 263
1986356S07183 1987 120 SP MM RAJA 1986-12-27 15:00:00 TS -14.8299 181.765 main 256 240 P_______P_P_P_ SH041987 -15.0075 -178.193 65 1 -14.2850 -178.370 75 960 -15.0196 -178.184 4 66 -15.0075 -178.193 TC 65 3 269
1986356S07183 1987 120 SP MM RAJA 1986-12-27 18:00:00 TS -14.8301 181.578 75 960 wellington main 240 224 O_______O_P_O_ jtwc_sh SH041987 -15.0000 -178.400 65 1 -14.3000 -178.500 75 960 -15.0205 -178.386 4 67 -15.0000 -178.400 TC 65 4 269
1986356S07183 1987 120 SP MM RAJA 1986-12-27 21:00:00 TS -14.8365 181.380 main 224 209 P_______P_P_P_ SH041987 -15.0000 -178.600 67 1 -14.3350 -178.685 77 957 -15.0111 -178.596 4 68 -15.0000 -178.600 TC 67 4 267
1986356S07183 1987 120 SP MM RAJA 1986-12-28 00:00:00 TS -14.8500 181.175 80 955 wellington main 209 187 O_______O_O_O_ jtwc_sh SH041987 -15.0000 -178.800 70 1 -14.4000 -178.900 80 955 -15.0000 -178.800 4 70 -15.0000 -178.800 TC 70 4 266
1986356S07183 1987 120 SP MM RAJA 1986-12-28 03:00:00 TS -14.8633 180.971 main 187 174 P_______P_P_P_ SH041987 -15.0000 -179.008 72 1 -14.4775 -179.108 80 955 -14.9756 -178.994 4 71 -15.0000 -179.008 TC 72 4 264
1986356S07183 1987 120 SP MM RAJA 1986-12-28 06:00:00 TS -14.8887 180.780 80 955 wellington main 174 163 O_______O_P_O_ jtwc_sh SH041987 -15.0000 -179.200 75 1 -14.6000 -179.300 80 955 -14.9550 -179.180 4 72 -15.0000 -179.200 TC 75 3 259
1986356S07183 1987 120 SP MM RAJA 1986-12-28 09:00:00 TS -14.9280 180.615 main 163 148 P_______P_P_P_ SH041987 -14.9850 -179.358 75 1 -14.7850 -179.472 80 955 -14.9569 -179.351 4 73 -14.9850 -179.358 TC 75 3 249
1986356S07183 1987 120 SP MM RAJA 1986-12-28 12:00:00 TS -15.0000 180.475 80 955 wellington main 148 130 O_______O_O_O_ jtwc_sh SH041987 -15.0000 -179.500 75 1 -15.0000 -179.600 80 955 -15.0000 -179.500 4 75 -15.0000 -179.500 TC 75 3 236
1986356S07183 1987 120 SP MM RAJA 1986-12-28 15:00:00 TS -15.1085 180.341 main 130 116 P_______P_P_P_ SH041987 -15.0700 -179.665 77 1 -15.2075 -179.665 80 955 -15.0865 -179.642 4 76 -15.0700 -179.665 TC 77 3 222
1986356S07183 1987 120 SP MM RAJA 1986-12-28 18:00:00 TS -15.2544 180.235 80 955 wellington main 105 95 O_______O_P_O_ jtwc_sh SH041987 -15.2000 -179.800 80 1 -15.4000 -179.700 80 955 -15.2175 -179.760 4 77 -15.2000 -179.800 TC 80 4 208
1986356S07183 1987 120 SP MM RAJA 1986-12-28 21:00:00 TS -15.4255 180.164 main 95 70 P_______P_P_P_ SH041987 -15.3775 -179.873 80 1 -15.5575 -179.750 80 955 -15.3897 -179.848 4 78 -15.3775 -179.873 TC 80 4 196
1986356S07183 1987 120 SP MM RAJA 1986-12-29 00:00:00 TS -15.6250 180.125 80 955 wellington main 70 49 O_______O_O_O_ jtwc_sh SH041987 -15.6000 -179.900 80 1 -15.7000 -179.800 80 955 -15.6000 -179.900 4 80 -15.6000 -179.900 TC 80 4 190
1986356S07183 1987 120 SP MM RAJA 1986-12-29 03:00:00 TS -15.8301 180.093 main 49 24 P_______P_P_P_ SH041987 -15.8350 -179.915 80 1 -15.8275 -179.865 80 955 -15.8228 -179.931 4 81 -15.8350 -179.915 TC 80 4 185
1986356S07183 1987 120 SP MM RAJA 1986-12-29 06:00:00 TS -16.0706 180.094 80 955 wellington main 24 21 O_______O_P_O_ jtwc_sh SH041987 -16.1000 -179.900 80 1 -16.0000 -179.900 80 955 -16.0824 -179.925 4 82 -16.1000 -179.900 TC 80 5 176
1986356S07183 1987 120 SP MM RAJA 1986-12-29 09:00:00 TS -16.3521 180.129 main 30 30 P_______P_P_P_ SH041987 -16.3850 -179.865 82 1 -16.2625 -179.872 80 955 -16.3759 -179.881 4 83 -16.3850 -179.865 TC 82 6 170
1986356S07183 1987 120 SP MM RAJA 1986-12-29 12:00:00 TS -16.6750 180.200 80 955 wellington main 33 31 O_______O_O_O_ jtwc_sh SH041987 -16.7000 -179.800 85 2 -16.6000 -179.800 80 955 -16.7000 -179.800 4 85 -16.7000 -179.800 TC 85 7 167
1986356S07183 1987 120 SP MM RAJA 1986-12-29 15:00:00 TS -17.0223 180.287 main 48 48 P_______P_P_P_ SH041987 -17.0350 -179.722 87 2 -16.9850 -179.715 80 955 -17.0341 -179.694 4 86 -17.0350 -179.722 TC 87 8 164
1986356S07183 1987 120 SP MM RAJA 1986-12-29 18:00:00 TS -17.3994 180.412 80 955 wellington main 85 85 O_______O_P_O_ jtwc_sh SH041987 -17.4000 -179.600 90 2 -17.4000 -179.600 80 955 -17.3975 -179.552 4 87 -17.4000 -179.600 TC 90 8 160
1986356S07183 1987 120 SP MM RAJA 1986-12-29 21:00:00 TS -17.7912 180.580 main 134 134 P_______P_P_P_ SH041987 -17.7925 -179.415 90 2 -17.7925 -179.465 80 955 -17.7872 -179.385 4 88 -17.7925 -179.415 TC 90 9 157
1986356S07183 1987 120 SP MM RAJA 1986-12-30 00:00:00 TS -18.2000 180.775 80 955 wellington main 183 183 O_______O_O_O_ jtwc_sh SH041987 -18.2000 -179.200 90 2 -18.2000 -179.300 80 955 -18.2000 -179.200 4 90 -18.2000 -179.200 TC 90 9 156
1986356S07183 1987 120 SP MM RAJA 1986-12-30 03:00:00 TS -18.6023 180.969 main 232 232 P_______P_P_P_ SH041987 -18.5850 -179.000 90 2 -18.6350 -179.107 77 957 -18.6041 -179.018 4 90 -18.5850 -179.000 TC 90 9 156
1986356S07183 1987 120 SP MM RAJA 1986-12-30 06:00:00 TS -19.0331 181.170 75 960 wellington main 281 281 O_______O_P_O_ jtwc_sh SH041987 -19.0000 -178.800 90 2 -19.1000 -178.900 75 960 -19.0325 -178.822 4 90 -19.0000 -178.800 TC 90 10 157
1986356S07183 1987 120 SP MM RAJA 1986-12-30 09:00:00 TS -19.4993 181.370 main 324 324 P_______P_P_P_ SH041987 -19.4700 -178.600 90 2 -19.5625 -178.707 72 962 -19.4947 -178.615 4 90 -19.4700 -178.600 TC 90 11 159
1986356S07183 1987 120 SP MM RAJA 1986-12-30 12:00:00 TS -20.0250 181.575 70 965 wellington main 371 371 O_______O_O_O_ jtwc_sh SH041987 -20.0000 -178.400 90 2 -20.1000 -178.500 70 965 -20.0000 -178.400 4 90 -20.0000 -178.400 TC 90 12 161
1986356S07183 1987 120 SP MM RAJA 1986-12-30 15:00:00 TS -20.6243 181.783 main 428 428 P_______P_P_P_ SH041987 -20.5850 -178.207 90 2 -20.7625 -178.265 70 965 -20.5649 -178.190 4 87 -20.5850 -178.207 TC 90 13 162
1986356S07183 1987 120 SP MM RAJA 1986-12-30 18:00:00 TS -21.2675 182.007 70 965 wellington main 497 497 O_______O_P_O_ jtwc_sh SH041987 -21.2000 -178.000 90 2 -21.5000 -178.000 70 965 -21.1699 -177.972 4 85 -21.2000 -178.000 TC 90 14 161
1986356S07183 1987 120 SP MM RAJA 1986-12-30 21:00:00 TS -21.9250 182.264 main 567 567 P_______P_P_P_ SH041987 -21.8000 -177.765 85 2 -22.3101 -177.671 67 967 -21.7899 -177.743 4 82 -21.8000 -177.765 TC 85 14 159
1986356S07183 1987 120 SP MM RAJA 1986-12-31 00:00:00 TS -22.5500 182.525 65 970 wellington main 631 640 O_______O_O_O_ jtwc_sh SH041987 -22.4000 -177.500 80 1 -23.0000 -177.400 65 970 -22.4000 -177.500 4 80 -22.4000 -177.500 TC 80 13 158
1986356S07183 1987 120 SP MM RAJA 1986-12-31 03:00:00 TS -23.1126 182.786 main 703 703 P_______P_P_P_ SH041987 -23.0150 -177.200 72 1 -23.3824 -177.297 62 972 -23.0378 -177.160 4 73 -23.0150 -177.200 TC 72 12 157
1986356S07183 1987 120 SP MM RAJA 1986-12-31 06:00:00 TS -23.6126 183.021 60 975 wellington main 760 760 O_______O_P_O_ jtwc_sh SH041987 -23.6000 -176.900 65 1 -23.6000 -177.300 60 975 -23.6504 -176.818 4 67 -23.6000 -176.900 TC 65 11 157
1986356S07183 1987 120 SP MM RAJA 1986-12-31 09:00:00 TS -24.0816 183.236 main 817 817 P_______P_P_P_ SH041987 -24.1600 -176.590 60 0 -23.8187 -177.334 60 975 -24.1877 -176.541 4 61 -24.1600 -176.590 TC 60 9 160
1986356S07183 1987 120 SP MM RAJA 1986-12-31 12:00:00 TS -24.4500 183.350 60 975 wellington main 856 865 O_______O_O_O_ jtwc_sh SH041987 -24.6000 -176.400 55 0 -24.0000 -177.400 60 975 -24.6000 -176.400 2 55 -24.6000 -176.400 TC 55 6 173
1986356S07183 1987 120 SP MM RAJA 1986-12-31 15:00:00 TS -24.6964 183.322 main 878 878 P_______P_P_P_ SH041987 -24.8748 -176.410 50 0 -24.1915 -177.433 58 976 -24.8445 -176.459 2 50 -24.8748 -176.410 TC 50 4 203
1986356S07183 1987 120 SP MM RAJA 1986-12-31 18:00:00 TS -24.8343 183.168 main 881 875 O_______P_P_O_ jtwc_sh SH041987 -25.0000 -176.600 45 0 -24.3737 -177.466 57 977 -24.9633 -176.661 2 45 -25.0000 -176.600 TC 45 4 240
1986356S07183 1987 120 SP MM RAJA 1986-12-31 21:00:00 TS -24.9012 182.925 main 875 860 P_______P_P_P_ SH041987 -25.0301 -176.913 40 0 -24.5441 -177.516 56 978 -25.0004 -176.957 2 40 -25.0301 -176.913 TC 40 5 262
1986356S07183 1987 120 SP MM RAJA 1987-01-01 00:00:00 TS -24.9077 182.608 55 980 wellington main 860 846 O_______O_O_O_ jtwc_sh SH041987 -25.0000 -177.300 35 0 -24.7000 -177.600 55 980 -25.0000 -177.300 2 35 -25.0000 -177.300 TC 35 6 267
1986356S07183 1987 120 SP MM RAJA 1987-01-01 03:00:00 TS -24.9282 182.309 main 846 837 P_______P_P_P_ SH041987 -24.9900 -177.662 32 -1 -24.8313 -177.739 55 980 -24.9985 -177.650 2 32 -24.9900 -177.662 TC 32 5 263
1986356S07183 1987 120 SP MM RAJA 1987-01-01 06:00:00 TS -24.9715 182.050 main 843 839 O_______P_O_O_ jtwc_sh SH041987 -25.0000 -178.000 30 -1 -24.9501 -177.913 55 980 -25.0000 -178.000 1 30 -25.0000 -178.000 TC 30 4 250
1986356S07183 1987 120 SP MM RAJA 1987-01-01 09:00:00 NR -25.0688 181.895 main 849 845 ________P_____ SH041987 -1 -25.0688 -178.105 55 980 1 TC 4 234
1986356S07183 1987 120 SP MM RAJA 1987-01-01 12:00:00 NR -25.2000 181.700 55 980 wellington main 851 847 ________O_____ -1 -25.2000 -178.300 55 980 4 232
1986356S07183 1987 120 SP MM RAJA 1987-01-01 15:00:00 NR -25.3240 181.529 main 853 853 ________P_____ -1 -25.3240 -178.471 55 980 4 229
1986356S07183 1987 120 SP MM RAJA 1987-01-01 18:00:00 NR -25.4674 181.357 main 869 866 ________P_____ -1 -25.4674 -178.643 55 980 5 224
1986356S07183 1987 120 SP MM RAJA 1987-01-01 21:00:00 NR -25.6521 181.182 main 883 879 ________P_____ -1 -25.6521 -178.818 55 980 5 217
1986356S07183 1987 120 SP MM RAJA 1987-01-02 00:00:00 NR -25.9000 181.000 55 980 wellington main 897 897 ________O_____ -1 -25.9000 -179.000 55 980 7 210
1986356S07183 1987 120 SP MM RAJA 1987-01-02 03:00:00 NR -26.2557 180.800 main 933 933 ________P_____ -1 -26.2557 -179.200 53 981 9 205
1986356S07183 1987 120 SP MM RAJA 1987-01-02 06:00:00 NR -26.6701 180.593 main 970 970 ________P_____ -1 -26.6701 -179.407 52 982 9 204
1986356S07183 1987 120 SP MM RAJA 1987-01-02 09:00:00 NR -27.0994 180.390 main 1009 1009 ________P_____ -1 -27.0994 -179.610 51 983 9 203
1986356S07183 1987 120 SP MM RAJA 1987-01-02 12:00:00 NR -27.5000 180.200 50 985 wellington main 1031 992 ________O_____ -1 -27.5000 -179.800 50 985 8 203
1986356S07183 1987 120 SP MM RAJA 1987-01-02 15:00:00 NR -27.8433 180.035 main 992 959 ________P_____ -1 -27.8433 -179.965 48 985 7 203
1986356S07183 1987 120 SP MM RAJA 1987-01-02 18:00:00 NR -28.1473 179.885 main 959 920 ________P_____ -1 -28.1473 179.885 47 986 6 205
1986356S07183 1987 120 SP MM RAJA 1987-01-02 21:00:00 NR -28.4027 179.742 main 920 896 ________P_____ -1 -28.4027 179.742 46 986 5 209
1986356S07183 1987 120 SP MM RAJA 1987-01-03 00:00:00 NR -28.6000 179.600 45 987 wellington main 896 881 ________O_____ -1 -28.6000 179.600 45 987 4 217
1986356S07183 1987 120 SP MM RAJA 1987-01-03 03:00:00 NR -28.7364 179.458 main 881 861 ________P_____ -1 -28.7364 179.458 45 987 3 229
1986356S07183 1987 120 SP MM RAJA 1987-01-03 06:00:00 NR -28.8173 179.314 main 861 846 ________P_____ -1 -28.8173 179.314 45 987 3 243
1986356S07183 1987 120 SP MM RAJA 1987-01-03 09:00:00 NR -28.8645 179.164 main 846 836 ________P_____ -1 -28.8645 179.164 45 987 3 253
1986356S07183 1987 120 SP MM RAJA 1987-01-03 12:00:00 NR -28.9000 179.000 45 987 wellington main 836 816 ________O_____ -1 -28.9000 179.000 45 987 3 253
1986356S07183 1987 120 SP MM RAJA 1987-01-03 15:00:00 NR -28.9615 178.790 main 816 806 ________P_____ -1 -28.9615 178.790 43 987 4 253
1986356S07183 1987 120 SP MM RAJA 1987-01-03 18:00:00 NR -29.0153 178.570 main 806 786 ________P_____ -1 -29.0153 178.570 42 988 4 255
1986356S07183 1987 120 SP MM RAJA 1987-01-03 21:00:00 NR -29.0615 178.365 main 786 776 ________P_____ -1 -29.0615 178.365 41 989 3 255
1986356S07183 1987 120 SP MM RAJA 1987-01-04 00:00:00 NR -29.1000 178.200 40 990 wellington main 776 770 ________O_____ -1 -29.1000 178.200 40 990 2 253
1986356S07183 1987 120 SP MM RAJA 1987-01-04 03:00:00 NR -29.1279 178.123 main 770 770 ________P_____ -1 -29.1279 178.123 40 990 1 244
1986356S07183 1987 120 SP MM RAJA 1987-01-04 06:00:00 NR -29.1497 178.085 main 770 761 ________P_____ -1 -29.1497 178.085 40 990 1 230
1986356S07183 1987 120 SP MM RAJA 1987-01-04 09:00:00 NR -29.1717 178.054 main 761 755 ________P_____ -1 -29.1717 178.054 40 990 1 239
1986356S07183 1987 120 SP MM RAJA 1987-01-04 12:00:00 NR -29.2000 178.000 40 990 wellington main 755 750 ________O_____ -1 -29.2000 178.000 40 990 2 244
1986356S07183 1987 120 SP MM RAJA 1987-01-04 15:00:00 NR -29.2393 177.898 main 750 735 ________P_____ -1 -29.2393 177.898 38 991 2 248
1986356S07183 1987 120 SP MM RAJA 1987-01-04 18:00:00 NR -29.2879 177.755 main 735 723 ________P_____ -1 -29.2879 177.755 37 992 3 249
1986356S07183 1987 120 SP MM RAJA 1987-01-04 21:00:00 NR -29.3425 177.585 main 723 703 ________P_____ -1 -29.3425 177.585 36 993 3 250
1986356S07183 1987 120 SP MM RAJA 1987-01-05 00:00:00 NR -29.4000 177.400 35 995 wellington main 703 ________O_____ -1 -29.4000 177.400 35 995 3 251

Digital Typhoon Data and Search

About IBTrACS Database

This database is a web-friendly format of International Best Track Archive for Climate Stewardship (IBTrACS), a global best track data archive curated by NOAA dating back to 1842.

Updated: 2021-11-26